Dalark, Arkansas
Current Conditions -  °F | °C
As of 12:56 PM on Sunday 21 Dec 2014 (Local Time) from KADF Reporting Station
Clear Clear  
Wind Chill: 55°   Ceiling: Unl
Heat Index: 55°   Visibility: 10mi
Dew Point: 42°   Wind: 7mph
Humidity: 62%   Direction: 170°S
Pressure: 30.07"   Gusts: NA
Location:  34.0941°N, 93.0475°W
Report Text: KADF 211856Z AUTO 17006KT 10SM CLR 13/06 A3007 RMK AO2 T01270055 SLP197
Loading
Personal Weather Stations






























Interactive Weather Map New forecast layout! Learn more

10-Day Weather Forecast

Advertisements
Track Severe Weather on mobile